Gazpromneft East — UBOF4 — position and weather

sailwx.info

Track history (hours):
 
Tides and Currents Weather Stations Pressure Air Temp Water Temp Dewpoint Dewpoint Depression Visibility Wind Speed Wind Dir Waves Ship Positions

Gazpromneft East

Last reported at 2014-Oct-26 08:32 UTC. Time now 2014-Oct-26 08:37 UTC.
Position N 59°55' E 030°14'.

Length 79 m; draft 4.3 m.

Type: Tanker. MMSI: 273335320.

Date/timePositionNaut miles runAvg speedWind from/ knotsBaromVisibWave heightAir tempDewpointWater temp
2014-Oct-26 08:32N 59°55' E 030°14'3 2.6
2014-Oct-26 07:32N 59°53' E 030°13'0 0.0
2014-Oct-26 06:24N 59°53' E 030°13'0 0.0
2014-Oct-26 05:31N 59°53' E 030°13'0 0.0
2014-Oct-26 04:11N 59°53' E 030°13'0 0.0
2014-Oct-26 03:32N 59°53' E 030°13'0 0.0
2014-Oct-26 02:33N 59°53' E 030°13'0 0.0
2014-Oct-26 01:07N 59°53' E 030°13'0 0.0
2014-Oct-25 23:33N 59°53' E 030°13'0 0.0
2014-Oct-25 22:32N 59°53' E 030°13'0 0.0
2014-Oct-25 21:33N 59°53' E 030°13'0 0.0
2014-Oct-25 20:21N 59°53' E 030°13'0 0.0
2014-Oct-25 19:30N 59°53' E 030°13'0 0.0
2014-Oct-25 18:32N 59°53' E 030°13'0 0.0
2014-Oct-25 17:33N 59°53' E 030°13'0 0.0
2014-Oct-25 16:31N 59°53' E 030°13'0 0.0
2014-Oct-25 15:33N 59°53' E 030°13'0 0.0
2014-Oct-25 13:10N 59°53' E 030°13'0 0.0
2014-Oct-25 10:25N 59°53' E 030°13'0 0.0
2014-Oct-25 06:26N 59°53' E 030°13'0 0.0
2014-Oct-25 03:31N 59°53' E 030°13'0 0.0
2014-Oct-25 02:32N 59°53' E 030°13'0 0.0
2014-Oct-25 00:24N 59°53' E 030°13'0 0.0
2014-Oct-24 23:28N 59°53' E 030°13'0 0.0
2014-Oct-24 22:29N 59°53' E 030°13'0 0.0
2014-Oct-24 20:15N 59°53' E 030°13'0 0.0
2014-Oct-24 19:27N 59°53' E 030°13'0 0.0
2014-Oct-24 06:12N 59°53' E 030°14'0 0.1
2014-Oct-24 05:33N 59°53' E 030°14'0 0.0
2014-Oct-24 04:32N 59°53' E 030°14'0 0.0
2014-Oct-24 03:33N 59°53' E 030°14'0 0.0
2014-Oct-24 02:32N 59°53' E 030°14'0 0.0
2014-Oct-24 01:32N 59°53' E 030°14'0 0.0
2014-Oct-24 00:33N 59°53' E 030°14'0 0.0
2014-Oct-23 23:33N 59°53' E 030°14'0 0.3
2014-Oct-23 22:32N 59°53' E 030°13'0 0.0
2014-Oct-23 20:32N 59°53' E 030°13'0 0.0
2014-Oct-23 19:31N 59°53' E 030°13'2 0.2
2014-Oct-23 07:15N 59°55' E 030°14'3 0.4
2014-Oct-22 23:22N 59°53' E 030°11'1 0.2
2014-Oct-22 15:12N 59°53' E 030°13'0 0.0
2014-Oct-22 14:08N 59°53' E 030°13'0 0.2
2014-Oct-22 13:33N 59°53' E 030°14'0 0.0
2014-Oct-22 12:21N 59°53' E 030°14'0 0.1
2014-Oct-22 11:25N 59°53' E 030°13'0 0.0
2014-Oct-22 06:20N 59°53' E 030°13'0 0.0
2014-Oct-20 16:19N 59°53' E 030°13'0 0.0
2014-Oct-20 15:32N 59°53' E 030°13'0 0.0
2014-Oct-20 14:26N 59°53' E 030°13'0 0.0
2014-Oct-20 11:05N 59°53' E 030°14'0 0.0
2014-Oct-20 10:27N 59°53' E 030°14'1 0.2
2014-Oct-20 05:33N 59°53' E 030°12'0 0.0
2014-Oct-19 16:24N 59°53' E 030°12'1 1.0
2014-Oct-19 15:32N 59°53' E 030°13'  
2014-Oct-16 14:33N 59°53' E 030°11'1 0.4
2014-Oct-16 12:04N 59°53' E 030°13'1 1.8
2014-Oct-16 11:33N 59°52' E 030°12'  
Track history (hours):
 
Tides and Currents Weather Stations Pressure Air Temp Water Temp Dewpoint Dewpoint Depression Visibility Wind Speed Wind Dir Waves Ship Positions

Gazpromneft East

Last reported at 2014-Oct-26 08:32 UTC. Time now 2014-Oct-26 08:37 UTC.
Position N 59°55' E 030°14'.

Length 79 m; draft 4.3 m.

Type: Tanker. MMSI: 273335320.

Date/timePositionNaut miles runAvg speedWind from/ knotsBaromVisibWave heightAir tempDewpointWater temp
2014-Oct-26 08:32N 59°55' E 030°14'3 2.6
2014-Oct-26 07:32N 59°53' E 030°13'0 0.0
2014-Oct-26 06:24N 59°53' E 030°13'0 0.0
2014-Oct-26 05:31N 59°53' E 030°13'0 0.0
2014-Oct-26 04:11N 59°53' E 030°13'0 0.0
2014-Oct-26 03:32N 59°53' E 030°13'0 0.0
2014-Oct-26 02:33N 59°53' E 030°13'0 0.0
2014-Oct-26 01:07N 59°53' E 030°13'0 0.0
2014-Oct-25 23:33N 59°53' E 030°13'0 0.0
2014-Oct-25 22:32N 59°53' E 030°13'0 0.0
2014-Oct-25 21:33N 59°53' E 030°13'0 0.0
2014-Oct-25 20:21N 59°53' E 030°13'0 0.0
2014-Oct-25 19:30N 59°53' E 030°13'0 0.0
2014-Oct-25 18:32N 59°53' E 030°13'0 0.0
2014-Oct-25 17:33N 59°53' E 030°13'0 0.0
2014-Oct-25 16:31N 59°53' E 030°13'0 0.0
2014-Oct-25 15:33N 59°53' E 030°13'0 0.0
2014-Oct-25 13:10N 59°53' E 030°13'0 0.0
2014-Oct-25 10:25N 59°53' E 030°13'0 0.0
2014-Oct-25 06:26N 59°53' E 030°13'0 0.0
2014-Oct-25 03:31N 59°53' E 030°13'0 0.0
2014-Oct-25 02:32N 59°53' E 030°13'0 0.0
2014-Oct-25 00:24N 59°53' E 030°13'0 0.0
2014-Oct-24 23:28N 59°53' E 030°13'0 0.0
2014-Oct-24 22:29N 59°53' E 030°13'0 0.0
2014-Oct-24 20:15N 59°53' E 030°13'0 0.0
2014-Oct-24 19:27N 59°53' E 030°13'0 0.0
2014-Oct-24 06:12N 59°53' E 030°14'0 0.1
2014-Oct-24 05:33N 59°53' E 030°14'0 0.0
2014-Oct-24 04:32N 59°53' E 030°14'0 0.0
2014-Oct-24 03:33N 59°53' E 030°14'0 0.0
2014-Oct-24 02:32N 59°53' E 030°14'0 0.0
2014-Oct-24 01:32N 59°53' E 030°14'0 0.0
2014-Oct-24 00:33N 59°53' E 030°14'0 0.0
2014-Oct-23 23:33N 59°53' E 030°14'0 0.3
2014-Oct-23 22:32N 59°53' E 030°13'0 0.0
2014-Oct-23 20:32N 59°53' E 030°13'0 0.0
2014-Oct-23 19:31N 59°53' E 030°13'2 0.2
2014-Oct-23 07:15N 59°55' E 030°14'3 0.4
2014-Oct-22 23:22N 59°53' E 030°11'1 0.2
2014-Oct-22 15:12N 59°53' E 030°13'0 0.0
2014-Oct-22 14:08N 59°53' E 030°13'0 0.2
2014-Oct-22 13:33N 59°53' E 030°14'0 0.0
2014-Oct-22 12:21N 59°53' E 030°14'0 0.1
2014-Oct-22 11:25N 59°53' E 030°13'0 0.0
2014-Oct-22 06:20N 59°53' E 030°13'0 0.0
2014-Oct-20 16:19N 59°53' E 030°13'0 0.0
2014-Oct-20 15:32N 59°53' E 030°13'0 0.0
2014-Oct-20 14:26N 59°53' E 030°13'0 0.0
2014-Oct-20 11:05N 59°53' E 030°14'0 0.0
2014-Oct-20 10:27N 59°53' E 030°14'1 0.2
2014-Oct-20 05:33N 59°53' E 030°12'0 0.0
2014-Oct-19 16:24N 59°53' E 030°12'1 1.0
2014-Oct-19 15:32N 59°53' E 030°13'  
2014-Oct-16 14:33N 59°53' E 030°11'1 0.4
2014-Oct-16 12:04N 59°53' E 030°13'1 1.8
2014-Oct-16 11:33N 59°52' E 030°12'  

Dump ship's entire track history